Terminal Aerodrome Forecast
Issued by NWS Birmingham, AL

Home | Current Version | Previous Version | Text Only | Print | Product List | Glossary On
Versions: 1 2 3 4 5 6 7 8 9 10 11 12 13 14 15
000
FTUS44 KBMX 191100
TAFBHM
TAF
KBHM 191120Z 1912/2012 02005KT P6SM VCSH OVC050
     FM191400 01010G18KT P6SM SCT050 OVC080
     FM200000 04003KT P6SM SCT050
     FM200300 00000KT P6SM SKC=

USA.gov is the U.S. government's official web portal to all federal, state and local government web resources and services.